Time;durP1;ratioP1;P1;durP2;ratioP2;P2;SDS_P1;SDS_P2;PMS_P1;PMS_P2;Temp;Humidity;BMP_temperature;BMP_pressure;BME280_temperature;BME280_humidity;BME280_pressure;Samples;Min_cycle;Max_cycle;Signal;HPM_P1;HPM_P2
2023/08/12 00:00:11;;;;;;;13.07;6.47;;;;;;;-148.88;100.00;-17125.47;5033377;28;20091;-73
2023/08/12 00:02:38;;;;;;;11.18;5.80;;;;;;;-148.88;100.00;-17125.47;5032126;28;20014;-74
2023/08/12 00:05:04;;;;;;;8.80;5.75;;;;;;;-148.88;100.00;-17125.47;5033374;28;20029;-73
2023/08/12 00:07:30;;;;;;;12.15;5.80;;;;;;;-148.88;100.00;-17125.47;5033176;28;20108;-73
2023/08/12 00:09:56;;;;;;;15.45;6.00;;;;;;;-148.88;100.00;-17125.47;5032039;28;20160;-73
2023/08/12 00:12:21;;;;;;;14.02;6.63;;;;;;;-148.88;100.00;-17125.47;5033440;28;20029;-73
2023/08/12 00:14:47;;;;;;;13.07;6.00;;;;;;;-148.88;100.00;-17125.47;5033145;28;20029;-73
2023/08/12 00:17:12;;;;;;;12.48;6.95;;;;;;;-148.88;100.00;-17125.47;5033335;28;20038;-73
2023/08/12 00:19:37;;;;;;;12.55;7.03;;;;;;;-148.88;100.00;-17125.47;5033129;28;20029;-73
2023/08/12 00:22:04;;;;;;;12.05;7.25;;;;;;;-148.88;100.00;-17125.47;5033184;28;20392;-73
2023/08/12 00:24:30;;;;;;;11.77;6.82;;;;;;;-148.88;100.00;-17125.47;5032981;28;20094;-73
2023/08/12 00:26:55;;;;;;;11.68;7.03;;;;;;;-148.88;100.00;-17125.47;5032980;28;20477;-73
2023/08/12 00:29:21;;;;;;;11.77;6.38;;;;;;;-148.88;100.00;-17125.47;5032986;28;20041;-73
2023/08/12 00:31:46;;;;;;;13.05;6.95;;;;;;;-148.88;100.00;-17125.47;5032878;28;20033;-72
2023/08/12 00:34:11;;;;;;;11.85;6.63;;;;;;;-148.88;100.00;-17125.47;5031658;28;20029;-72
2023/08/12 00:36:37;;;;;;;14.77;6.72;;;;;;;-148.88;100.00;-17125.47;5032832;28;20085;-73
2023/08/12 00:39:03;;;;;;;8.50;5.82;;;;;;;-148.88;100.00;-17125.47;5032921;28;20431;-72
2023/08/12 00:41:29;;;;;;;11.52;6.25;;;;;;;-148.88;100.00;-17125.47;5032895;28;20021;-73
2023/08/12 00:43:54;;;;;;;10.43;6.78;;;;;;;-148.88;100.00;-17125.47;5032861;28;20040;-73
2023/08/12 00:46:20;;;;;;;11.85;7.30;;;;;;;-148.88;100.00;-17125.47;5031485;28;20084;-74
2023/08/12 00:48:46;;;;;;;11.32;6.53;;;;;;;-148.88;100.00;-17125.47;5032808;28;20021;-73
2023/08/12 00:51:11;;;;;;;13.00;7.70;;;;;;;-148.88;100.00;-17125.47;5032809;28;20563;-73
2023/08/12 00:53:37;;;;;;;10.77;6.75;;;;;;;-148.88;100.00;-17125.47;5032779;28;20043;-73
2023/08/12 00:56:03;;;;;;;10.82;7.85;;;;;;;-148.88;100.00;-17125.47;5034370;28;20031;-72
2023/08/12 00:58:29;;;;;;;10.57;7.90;;;;;;;-148.88;100.00;-17125.47;5035424;28;20427;-73
2023/08/12 01:00:55;;;;;;;14.40;8.68;;;;;;;-148.88;100.00;-17125.47;5036785;28;20018;-73
2023/08/12 01:03:21;;;;;;;13.85;8.70;;;;;;;-148.88;100.00;-17125.47;5035486;28;20436;-73
2023/08/12 01:05:47;;;;;;;11.82;8.90;;;;;;;-148.88;100.00;-17125.47;5036598;28;20025;-73
2023/08/12 01:08:12;;;;;;;13.35;8.48;;;;;;;-148.88;100.00;-17125.47;5036412;28;20075;-74
2023/08/12 01:10:44;;;;;;;16.42;8.48;;;;;;;-148.88;100.00;-17125.47;5035387;28;20460;-73
2023/08/12 01:13:40;;;;;;;12.70;9.18;;;;;;;-148.88;100.00;-17125.47;5036405;28;20435;-72
2023/08/12 01:16:09;;;;;;;13.32;9.40;;;;;;;-148.88;100.00;-17125.47;5036430;28;20053;-73
2023/08/12 01:18:36;;;;;;;11.55;8.55;;;;;;;-148.88;100.00;-17125.47;5036305;28;20065;-73
2023/08/12 01:21:03;;;;;;;13.93;9.35;;;;;;;-148.88;100.00;-17125.47;5036330;28;20026;-73
2023/08/12 01:23:29;;;;;;;14.98;9.32;;;;;;;-148.88;100.00;-17125.47;5036274;28;20021;-73
2023/08/12 01:25:54;;;;;;;13.75;9.70;;;;;;;-148.88;100.00;-17125.47;5036164;28;20026;-73
2023/08/12 01:28:20;;;;;;;20.85;10.77;;;;;;;-148.88;100.00;-17125.47;5036014;28;20384;-73
2023/08/12 01:31:10;;;;;;;18.23;11.70;;;;;;;-148.88;100.00;-17125.47;5036201;28;20108;-72
2023/08/12 01:33:41;;;;;;;19.40;11.50;;;;;;;-148.88;100.00;-17125.47;5035984;28;20022;-73
2023/08/12 01:36:15;;;;;;;19.95;12.27;;;;;;;-148.88;100.00;-17125.47;5035979;28;20037;-72
2023/08/12 01:38:41;;;;;;;18.90;13.38;;;;;;;-148.88;100.00;-17125.47;5035834;28;20468;-73
2023/08/12 01:41:10;;;;;;;20.45;14.48;;;;;;;-148.88;100.00;-17125.47;5035841;28;20040;-73
2023/08/12 01:43:35;;;;;;;18.63;14.43;;;;;;;-148.88;100.00;-17125.47;5036031;28;20063;-73
2023/08/12 01:46:01;;;;;;;23.25;16.13;;;;;;;-148.88;100.00;-17125.47;5035765;28;20025;-72
2023/08/12 01:48:26;;;;;;;20.65;17.27;;;;;;;-148.88;100.00;-17125.47;5035622;28;20022;-73
2023/08/12 01:50:52;;;;;;;22.48;17.15;;;;;;;-148.88;100.00;-17125.47;5035570;28;20022;-73
2023/08/12 01:53:17;;;;;;;20.65;16.45;;;;;;;-148.88;100.00;-17125.47;5034219;28;20022;-73
2023/08/12 01:55:44;;;;;;;28.58;17.88;;;;;;;-148.88;100.00;-17125.47;5035373;28;20034;-73
2023/08/12 01:58:09;;;;;;;25.60;17.27;;;;;;;-148.88;100.00;-17125.47;5035523;28;20104;-73
2023/08/12 02:00:35;;;;;;;24.50;17.35;;;;;;;-148.88;100.00;-17125.47;5035530;28;20113;-73
2023/08/12 02:03:00;;;;;;;24.35;18.20;;;;;;;-148.88;100.00;-17125.47;5034121;28;20116;-73
2023/08/12 02:05:25;;;;;;;27.95;18.58;;;;;;;-148.88;100.00;-17125.47;5035707;28;20025;-73
2023/08/12 02:07:51;;;;;;;23.95;18.35;;;;;;;-148.88;100.00;-17125.47;5035395;28;20124;-73
2023/08/12 02:10:16;;;;;;;28.42;19.60;;;;;;;-148.88;100.00;-17125.47;5035423;28;20021;-73
2023/08/12 02:12:41;;;;;;;25.67;19.23;;;;;;;-148.88;100.00;-17125.47;5033866;28;20020;-73
2023/08/12 02:15:07;;;;;;;25.10;19.77;;;;;;;-148.88;100.00;-17125.47;5035191;28;20492;-73
2023/08/12 02:17:32;;;;;;;27.85;18.60;;;;;;;-148.88;100.00;-17125.47;5035360;28;20033;-73
2023/08/12 02:19:58;;;;;;;25.25;18.20;;;;;;;-148.88;100.00;-17125.47;5033713;28;20029;-73
2023/08/12 02:22:23;;;;;;;29.63;19.08;;;;;;;-148.88;100.00;-17125.47;5034940;28;20041;-72
2023/08/12 02:24:48;;;;;;;24.95;18.17;;;;;;;-148.88;100.00;-17125.47;5034922;28;20021;-72
2023/08/12 02:27:14;;;;;;;24.60;18.52;;;;;;;-148.88;100.00;-17125.47;5034822;28;20032;-72
2023/08/12 02:29:39;;;;;;;21.83;17.65;;;;;;;-148.88;100.00;-17125.47;5034959;28;20029;-73
2023/08/12 02:32:05;;;;;;;23.80;18.63;;;;;;;-148.88;100.00;-17125.47;5034955;28;20028;-74
2023/08/12 02:34:30;;;;;;;24.42;18.58;;;;;;;-148.88;100.00;-17125.47;5034837;28;20143;-72
2023/08/12 02:36:55;;;;;;;19.25;16.33;;;;;;;-148.88;100.00;-17125.47;5035085;28;20025;-73
2023/08/12 02:39:21;;;;;;;23.02;18.10;;;;;;;-148.88;100.00;-17125.47;5034840;28;20059;-73
2023/08/12 02:41:46;;;;;;;27.08;18.42;;;;;;;-148.88;100.00;-17125.47;5034692;28;20031;-73
2023/08/12 02:44:12;;;;;;;22.63;17.75;;;;;;;-148.88;100.00;-17125.47;5034883;28;20021;-73
2023/08/12 02:46:37;;;;;;;25.52;18.77;;;;;;;-148.88;100.00;-17125.47;5034384;28;20108;-73
2023/08/12 02:49:02;;;;;;;25.17;18.02;;;;;;;-148.88;100.00;-17125.47;5034416;28;20017;-73
2023/08/12 02:51:28;;;;;;;25.20;18.08;;;;;;;-148.88;100.00;-17125.47;5034345;28;20048;-73
2023/08/12 02:53:53;;;;;;;23.92;18.30;;;;;;;-148.88;100.00;-17125.47;5034333;28;20117;-73
2023/08/12 02:56:18;;;;;;;24.55;18.35;;;;;;;-148.88;100.00;-17125.47;5034512;28;20175;-73
2023/08/12 02:58:44;;;;;;;28.95;20.23;;;;;;;-148.88;100.00;-17125.47;5034550;28;20028;-73
2023/08/12 03:01:09;;;;;;;24.60;19.92;;;;;;;-148.88;100.00;-17125.47;5034382;28;20506;-73
2023/08/12 03:03:34;;;;;;;25.25;19.15;;;;;;;-148.88;100.00;-17125.47;5034214;28;20026;-73
2023/08/12 03:06:00;;;;;;;27.23;19.40;;;;;;;-148.88;100.00;-17125.47;5034445;28;20099;-73
2023/08/12 03:08:25;;;;;;;23.67;19.90;;;;;;;-148.88;100.00;-17125.47;5033998;28;20049;-73
2023/08/12 03:10:58;;;;;;;27.63;19.30;;;;;;;-148.88;100.00;-17125.47;5032752;28;20511;-73
2023/08/12 03:13:23;;;;;;;24.00;20.07;;;;;;;-148.88;100.00;-17125.47;5034392;28;20024;-73
2023/08/12 03:15:49;;;;;;;26.27;19.27;;;;;;;-148.88;100.00;-17125.47;5034012;28;20033;-73
2023/08/12 03:18:14;;;;;;;27.65;20.80;;;;;;;-148.88;100.00;-17125.47;5032343;28;20029;-74
2023/08/12 03:20:39;;;;;;;26.98;21.13;;;;;;;-148.88;100.00;-17125.47;5032272;28;20017;-73
2023/08/12 03:23:05;;;;;;;26.08;18.40;;;;;;;-148.88;100.00;-17125.47;5034382;28;20052;-72
2023/08/12 03:25:30;;;;;;;34.53;21.13;;;;;;;-148.88;100.00;-17125.47;5033903;28;20057;-73
2023/08/12 03:27:55;;;;;;;24.30;19.27;;;;;;;-148.88;100.00;-17125.47;5033657;28;20502;-73
2023/08/12 03:30:21;;;;;;;28.15;19.90;;;;;;;-148.88;100.00;-17125.47;5033724;28;20031;-73
2023/08/12 03:32:46;;;;;;;33.60;21.33;;;;;;;-148.88;100.00;-17125.47;5033568;28;20022;-73
2023/08/12 03:35:11;;;;;;;28.90;20.77;;;;;;;-148.88;100.00;-17125.47;5033584;28;20064;-73
2023/08/12 03:37:37;;;;;;;27.02;21.50;;;;;;;-148.88;100.00;-17125.47;5033444;28;20029;-72
2023/08/12 03:40:03;;;;;;;28.27;21.30;;;;;;;-148.88;100.00;-17125.47;5033573;28;20124;-73
2023/08/12 03:42:29;;;;;;;28.70;20.92;;;;;;;-148.88;100.00;-17125.47;5032198;28;20018;-73
2023/08/12 03:44:54;;;;;;;28.25;20.88;;;;;;;-148.88;100.00;-17125.47;5032200;28;20025;-72
2023/08/12 03:47:21;;;;;;;25.30;20.05;;;;;;;-148.88;100.00;-17125.47;5033455;28;20369;-73
2023/08/12 03:49:47;;;;;;;49.53;44.55;;;;;;;-148.88;100.00;-17125.47;5033345;28;20028;-73
2023/08/12 03:52:13;;;;;;;29.42;22.65;;;;;;;-148.88;100.00;-17125.47;5033483;28;20018;-73
2023/08/12 03:54:38;;;;;;;29.48;20.55;;;;;;;-148.88;100.00;-17125.47;5033339;28;20041;-73
2023/08/12 03:57:03;;;;;;;28.35;20.35;;;;;;;-148.88;100.00;-17125.47;5033193;28;20022;-73
2023/08/12 03:59:29;;;;;;;27.25;20.55;;;;;;;-148.88;100.00;-17125.47;5033286;28;20033;-73
2023/08/12 04:01:54;;;;;;;30.10;21.88;;;;;;;-148.88;100.00;-17125.47;5032362;28;20421;-73
2023/08/12 04:04:19;;;;;;;31.73;21.23;;;;;;;-148.88;100.00;-17125.47;5033186;28;20528;-73
2023/08/12 04:06:45;;;;;;;29.40;20.23;;;;;;;-148.88;100.00;-17125.47;5033061;28;20511;-73
2023/08/12 04:09:10;;;;;;;30.30;21.60;;;;;;;-148.88;100.00;-17125.47;5033203;28;20476;-73
2023/08/12 04:11:35;;;;;;;29.30;21.10;;;;;;;-148.88;100.00;-17125.47;5033098;28;20056;-73
2023/08/12 04:14:01;;;;;;;29.23;21.20;;;;;;;-148.88;100.00;-17125.47;5033188;28;20033;-73
2023/08/12 04:16:26;;;;;;;35.85;23.67;;;;;;;-148.88;100.00;-17125.47;5033086;28;20021;-73
2023/08/12 04:18:51;;;;;;;29.48;21.85;;;;;;;-148.88;100.00;-17125.47;5032908;28;20087;-72
2023/08/12 04:21:17;;;;;;;35.08;22.98;;;;;;;-148.88;100.00;-17125.47;5032859;28;20079;-72
2023/08/12 04:23:42;;;;;;;32.40;23.65;;;;;;;-148.88;100.00;-17125.47;5032888;28;20388;-72
2023/08/12 04:26:07;;;;;;;30.77;22.77;;;;;;;-148.88;100.00;-17125.47;5032829;28;20025;-73
2023/08/12 04:28:33;;;;;;;29.35;22.05;;;;;;;-148.88;100.00;-17125.47;5032681;28;20112;-73
2023/08/12 04:30:58;;;;;;;30.80;23.42;;;;;;;-148.88;100.00;-17125.47;5031827;28;20032;-73
2023/08/12 04:33:24;;;;;;;34.10;24.20;;;;;;;-148.88;100.00;-17125.47;5032615;28;20515;-73
2023/08/12 04:35:49;;;;;;;32.20;23.02;;;;;;;-148.88;100.00;-17125.47;5033613;28;20052;-73
2023/08/12 04:38:15;;;;;;;34.15;24.20;;;;;;;-148.88;100.00;-17125.47;5032575;28;20429;-73
2023/08/12 04:40:41;;;;;;;33.00;23.73;;;;;;;-148.88;100.00;-17125.47;5031223;28;20030;-73
2023/08/12 04:43:11;;;;;;;35.28;23.75;;;;;;;-148.88;100.00;-17125.47;5032654;28;20029;-73
2023/08/12 04:45:36;;;;;;;37.38;25.75;;;;;;;-148.88;100.00;-17125.47;5032527;28;20500;-72
2023/08/12 04:48:02;;;;;;;37.72;24.45;;;;;;;-148.88;100.00;-17125.47;5031121;28;20079;-72
2023/08/12 04:50:31;;;;;;;37.53;26.52;;;;;;;-148.88;100.00;-17125.47;5031169;28;20025;-73
2023/08/12 04:52:56;;;;;;;37.25;26.40;;;;;;;-148.88;100.00;-17125.47;5032384;28;20314;-73
2023/08/12 04:55:22;;;;;;;35.60;26.08;;;;;;;-148.88;100.00;-17125.47;5032522;28;20041;-72
2023/08/12 04:57:47;;;;;;;35.70;26.67;;;;;;;-148.88;100.00;-17125.47;5032419;28;20037;-72
2023/08/12 05:00:12;;;;;;;44.55;28.60;;;;;;;-148.88;100.00;-17125.47;5032433;28;20570;-73
2023/08/12 05:02:39;;;;;;;39.63;28.38;;;;;;;-148.88;100.00;-17125.47;5032420;28;20040;-73
2023/08/12 05:05:05;;;;;;;44.05;29.23;;;;;;;-148.88;100.00;-17125.47;5032525;28;20022;-72
2023/08/12 05:07:31;;;;;;;38.20;28.02;;;;;;;-148.88;100.00;-17125.47;5032256;28;20389;-72
2023/08/12 05:09:56;;;;;;;42.92;28.65;;;;;;;-148.88;100.00;-17125.47;5032437;28;20030;-73
2023/08/12 05:12:21;;;;;;;41.40;29.33;;;;;;;-148.88;100.00;-17125.47;5032479;28;20028;-73
2023/08/12 05:14:47;;;;;;;45.15;30.80;;;;;;;-148.88;100.00;-17125.47;5031377;28;20079;-72
2023/08/12 05:17:12;;;;;;;42.97;30.27;;;;;;;-148.88;100.00;-17125.47;5032446;28;20017;-72
2023/08/12 05:19:37;;;;;;;41.00;30.73;;;;;;;-148.88;100.00;-17125.47;5032651;28;20025;-72
2023/08/12 05:22:03;;;;;;;43.15;30.55;;;;;;;-148.88;100.00;-17125.47;5032536;28;20023;-73
2023/08/12 05:24:28;;;;;;;42.92;30.20;;;;;;;-148.88;100.00;-17125.47;5032665;28;20025;-73
2023/08/12 05:26:54;;;;;;;46.53;32.33;;;;;;;-148.88;100.00;-17125.47;5032495;28;20017;-72
2023/08/12 05:29:19;;;;;;;49.15;32.38;;;;;;;-148.88;100.00;-17125.47;5031298;28;20519;-74
2023/08/12 05:31:45;;;;;;;47.90;31.95;;;;;;;-148.88;100.00;-17125.47;5032711;28;20484;-73
2023/08/12 05:34:10;;;;;;;44.08;31.40;;;;;;;-148.88;100.00;-17125.47;5032511;28;20057;-72
2023/08/12 05:36:36;;;;;;;46.30;31.50;;;;;;;-148.88;100.00;-17125.47;5031125;28;20120;-73
2023/08/12 05:39:02;;;;;;;45.83;30.98;;;;;;;-148.88;100.00;-17125.47;5032457;28;20105;-74
2023/08/12 05:41:28;;;;;;;41.30;28.80;;;;;;;-148.88;100.00;-17125.47;5032407;28;20017;-75
2023/08/12 05:43:53;;;;;;;40.17;28.65;;;;;;;-148.88;100.00;-17125.47;5035966;28;20113;-74
2023/08/12 05:46:19;;;;;;;39.78;28.40;;;;;;;-148.88;100.00;-17125.47;5036033;28;20037;-73
2023/08/12 05:48:44;;;;;;;41.25;28.13;;;;;;;-148.88;100.00;-17125.47;5035868;28;20025;-73
2023/08/12 05:51:10;;;;;;;40.97;29.33;;;;;;;-148.88;100.00;-17125.47;5035991;28;20063;-74
2023/08/12 05:53:35;;;;;;;39.58;28.30;;;;;;;-148.88;100.00;-17125.47;5035811;28;20480;-73
2023/08/12 05:56:01;;;;;;;39.67;28.30;;;;;;;-148.88;100.00;-17125.47;5035781;28;20041;-73
2023/08/12 05:58:26;;;;;;;38.80;27.60;;;;;;;-148.88;100.00;-17125.47;5035847;28;20071;-74
2023/08/12 06:00:52;;;;;;;41.22;28.80;;;;;;;-148.88;100.00;-17125.47;5035739;28;20062;-73
2023/08/12 06:03:17;;;;;;;46.40;30.40;;;;;;;-148.88;100.00;-17125.47;5036008;28;20024;-74
2023/08/12 06:05:45;;;;;;;44.28;29.98;;;;;;;-148.88;100.00;-17125.47;5034438;28;20503;-74
2023/08/12 06:08:11;;;;;;;43.15;30.50;;;;;;;-148.88;100.00;-17125.47;5035509;28;20025;-73
2023/08/12 06:10:36;;;;;;;43.75;30.08;;;;;;;-148.88;100.00;-17125.47;5035584;28;20117;-73
2023/08/12 06:13:02;;;;;;;44.13;31.20;;;;;;;-148.88;100.00;-17125.47;5034219;28;20476;-73
2023/08/12 06:15:28;;;;;;;44.50;30.38;;;;;;;-148.88;100.00;-17125.47;5035503;28;20492;-75
2023/08/12 06:17:53;;;;;;;40.60;29.10;;;;;;;-148.88;100.00;-17125.47;5035399;28;20029;-74
2023/08/12 06:20:18;;;;;;;44.20;28.88;;;;;;;-148.88;100.00;-17125.47;5035680;28;20388;-75
2023/08/12 06:22:44;;;;;;;43.20;30.70;;;;;;;-148.88;100.00;-17125.47;5035629;28;20388;-74
2023/08/12 06:25:09;;;;;;;44.58;30.73;;;;;;;-148.88;100.00;-17125.47;5035582;28;20384;-74
2023/08/12 06:27:34;;;;;;;44.25;29.63;;;;;;;-148.88;100.00;-17125.47;5035188;28;20112;-74
2023/08/12 06:30:00;;;;;;;40.58;29.10;;;;;;;-148.88;100.00;-17125.47;5035277;28;20031;-73
2023/08/12 06:32:25;;;;;;;44.35;30.20;;;;;;;-148.88;100.00;-17125.47;5033832;28;20014;-73
2023/08/12 06:34:50;;;;;;;40.80;29.80;;;;;;;-148.88;100.00;-17125.47;5035070;28;20040;-74
2023/08/12 06:37:16;;;;;;;40.63;29.15;;;;;;;-148.88;100.00;-17125.47;5035002;28;20029;-74
2023/08/12 06:39:41;;;;;;;44.92;29.95;;;;;;;-148.88;100.00;-17125.47;5035309;28;20061;-73
2023/08/12 06:42:06;;;;;;;39.70;28.58;;;;;;;-148.88;100.00;-17125.47;5035270;28;20495;-74
2023/08/12 06:44:32;;;;;;;38.45;28.65;;;;;;;-148.88;100.00;-17125.47;5034968;28;20447;-74
2023/08/12 06:46:57;;;;;;;41.47;29.63;;;;;;;-148.88;100.00;-17125.47;5035382;28;20392;-74
2023/08/12 06:49:22;;;;;;;40.90;28.35;;;;;;;-148.88;100.00;-17125.47;5034895;28;20484;-74
2023/08/12 06:51:48;;;;;;;39.70;28.92;;;;;;;-148.88;100.00;-17125.47;5034756;28;20396;-74
2023/08/12 06:54:13;;;;;;;36.83;27.48;;;;;;;-148.88;100.00;-17125.47;5033654;28;20032;-74
2023/08/12 06:56:38;;;;;;;37.78;27.10;;;;;;;-148.88;100.00;-17125.47;5034765;28;20064;-73
2023/08/12 06:59:04;;;;;;;39.75;27.10;;;;;;;-148.88;100.00;-17125.47;5034958;28;20400;-73
2023/08/12 07:01:29;;;;;;;37.80;26.67;;;;;;;-148.88;100.00;-17125.47;5034621;28;20060;-73
2023/08/12 07:03:55;;;;;;;30.38;24.60;;;;;;;-148.88;100.00;-17125.47;5034710;28;20028;-73
2023/08/12 07:06:20;;;;;;;33.25;25.35;;;;;;;-148.88;100.00;-17125.47;5034897;28;20021;-73
2023/08/12 07:08:45;;;;;;;33.17;23.88;;;;;;;-148.88;100.00;-17125.47;5034472;28;20102;-73
2023/08/12 07:11:11;;;;;;;31.70;24.38;;;;;;;-148.88;100.00;-17125.47;5034765;28;20045;-72
2023/08/12 07:13:36;;;;;;;31.98;23.08;;;;;;;-148.88;100.00;-17125.47;5034507;28;20017;-73
2023/08/12 07:16:01;;;;;;;30.13;22.63;;;;;;;-148.88;100.00;-17125.47;5034423;28;20037;-72
2023/08/12 07:18:27;;;;;;;29.90;22.73;;;;;;;-148.88;100.00;-17125.47;5034270;28;20022;-73
2023/08/12 07:20:52;;;;;;;26.85;20.77;;;;;;;-148.88;100.00;-17125.47;5033040;28;20115;-73
2023/08/12 07:23:17;;;;;;;27.02;20.83;;;;;;;-148.88;100.00;-17125.47;5034281;28;20025;-73
2023/08/12 07:25:46;;;;;;;27.27;19.77;;;;;;;-148.88;100.00;-17125.47;5034252;28;20507;-73
2023/08/12 07:28:11;;;;;;;25.30;18.65;;;;;;;-148.88;100.00;-17125.47;5034143;28;20028;-73
2023/08/12 07:30:36;;;;;;;22.10;17.67;;;;;;;-148.88;100.00;-17125.47;5034481;28;20018;-74
2023/08/12 07:33:02;;;;;;;22.27;18.30;;;;;;;-148.88;100.00;-17125.47;5035521;28;20033;-74
2023/08/12 07:35:27;;;;;;;23.48;18.80;;;;;;;-148.88;100.00;-17125.47;5033921;28;20032;-73
2023/08/12 07:37:53;;;;;;;22.45;18.88;;;;;;;-148.88;100.00;-17125.47;5033912;28;20024;-73
2023/08/12 07:40:18;;;;;;;22.13;17.95;;;;;;;-148.88;100.00;-17125.47;5033935;28;20539;-73
2023/08/12 07:42:43;;;;;;;21.58;17.23;;;;;;;-148.88;100.00;-17125.47;5033898;28;20017;-73
2023/08/12 07:45:09;;;;;;;20.85;16.05;;;;;;;-148.88;100.00;-17125.47;5033900;28;20388;-73
2023/08/12 07:47:34;;;;;;;17.45;15.43;;;;;;;-148.88;100.00;-17125.47;5033997;28;20495;-73
2023/08/12 07:49:59;;;;;;;17.20;14.95;;;;;;;-148.88;100.00;-17125.47;5033774;28;20549;-73
2023/08/12 07:52:25;;;;;;;20.58;15.25;;;;;;;-148.88;100.00;-17125.47;5033645;28;20103;-73
2023/08/12 07:54:50;;;;;;;18.75;14.32;;;;;;;-148.88;100.00;-17125.47;5033530;28;20455;-74
2023/08/12 07:57:16;;;;;;;19.02;14.57;;;;;;;-148.88;100.00;-17125.47;5033532;28;20091;-73
2023/08/12 07:59:41;;;;;;;15.80;12.85;;;;;;;-148.88;100.00;-17125.47;5033554;28;20025;-73
2023/08/12 08:02:06;;;;;;;16.35;13.02;;;;;;;-148.88;100.00;-17125.47;5033815;28;20104;-73
2023/08/12 08:04:33;;;;;;;15.18;12.48;;;;;;;-148.88;100.00;-17125.47;5033664;28;20058;-75
2023/08/12 08:06:58;;;;;;;14.98;13.00;;;;;;;-148.88;100.00;-17125.47;5032164;28;20056;-76
2023/08/12 08:09:24;;;;;;;18.23;13.57;;;;;;;-148.88;100.00;-17125.47;5033438;28;20057;-75
2023/08/12 08:11:50;;;;;;;17.70;12.98;;;;;;;-148.88;100.00;-17125.47;5033354;28;20014;-75
2023/08/12 08:14:15;;;;;;;14.63;12.52;;;;;;;-148.88;100.00;-17125.47;5033418;28;20044;-76
2023/08/12 08:16:41;;;;;;;14.13;12.10;;;;;;;-148.88;100.00;-17125.47;5031954;28;20480;-76
2023/08/12 08:19:08;;;;;;;13.48;11.93;;;;;;;-148.88;100.00;-17125.47;5033552;28;20021;-76
2023/08/12 08:21:33;;;;;;;15.40;11.35;;;;;;;-148.88;100.00;-17125.47;5033287;28;20036;-75
2023/08/12 08:23:58;;;;;;;12.13;10.82;;;;;;;-148.88;100.00;-17125.47;5033216;28;20017;-74
2023/08/12 08:26:25;;;;;;;10.80;9.63;;;;;;;-148.88;100.00;-17125.47;5033212;28;20021;-75
2023/08/12 08:28:50;;;;;;;11.80;9.82;;;;;;;-148.88;100.00;-17125.47;5033029;28;20029;-75
2023/08/12 08:31:16;;;;;;;13.38;10.88;;;;;;;-148.88;100.00;-17125.47;5033113;28;20171;-75
2023/08/12 08:33:41;;;;;;;14.30;10.77;;;;;;;-148.88;100.00;-17125.47;5033514;28;20022;-75
2023/08/12 08:36:06;;;;;;;11.73;10.27;;;;;;;-148.88;100.00;-17125.47;5033675;28;20032;-74
2023/08/12 08:38:32;;;;;;;13.05;9.82;;;;;;;-148.88;100.00;-17125.47;5032953;28;20125;-74
2023/08/12 08:40:57;;;;;;;11.45;10.07;;;;;;;-148.88;100.00;-17125.47;5032960;28;20029;-74
2023/08/12 08:43:26;;;;;;;13.13;11.20;;;;;;;-148.88;100.00;-17125.47;5032935;28;20544;-74
2023/08/12 08:45:53;;;;;;;11.88;10.68;;;;;;;-148.88;100.00;-17125.47;5032951;28;20025;-75
2023/08/12 08:48:19;;;;;;;13.68;11.13;;;;;;;-148.88;100.00;-17125.47;5032787;28;20391;-75
2023/08/12 08:50:45;;;;;;;14.10;12.13;;;;;;;-148.88;100.00;-17125.47;5032882;28;20083;-74
2023/08/12 08:53:12;;;;;;;15.70;11.88;;;;;;;-148.88;100.00;-17125.47;5032765;28;20013;-75
2023/08/12 08:55:40;;;;;;;14.60;13.05;;;;;;;-148.88;100.00;-17125.47;5032711;28;20468;-74
2023/08/12 08:58:05;;;;;;;14.80;12.30;;;;;;;-148.88;100.00;-17125.47;5032788;28;20448;-74
2023/08/12 09:00:31;;;;;;;14.43;12.90;;;;;;;-148.88;100.00;-17125.47;5032869;28;20029;-74
2023/08/12 09:02:58;;;;;;;17.25;13.65;;;;;;;-148.88;100.00;-17125.47;5031572;28;20021;-76
2023/08/12 09:05:23;;;;;;;15.30;12.93;;;;;;;-148.88;100.00;-17125.47;5032830;28;20032;-74
2023/08/12 09:07:49;;;;;;;17.30;14.27;;;;;;;-148.88;100.00;-17125.47;5032740;28;20392;-74
2023/08/12 09:10:18;;;;;;;17.00;14.82;;;;;;;-148.88;100.00;-17125.47;5031439;28;20021;-75
2023/08/12 09:12:44;;;;;;;19.17;14.35;;;;;;;-148.88;100.00;-17125.47;5032617;28;20025;-75
2023/08/12 09:15:10;;;;;;;17.08;14.82;;;;;;;-148.88;100.00;-17125.47;5033004;28;20025;-75
2023/08/12 09:17:35;;;;;;;15.82;14.10;;;;;;;-148.88;100.00;-17125.47;5034459;28;20021;-74
2023/08/12 09:20:01;;;;;;;16.02;14.32;;;;;;;-148.88;100.00;-17125.47;5036595;28;20021;-74
2023/08/12 09:22:26;;;;;;;18.95;15.98;;;;;;;-148.88;100.00;-17125.47;5036578;28;20024;-74
2023/08/12 09:24:57;;;;;;;19.67;17.35;;;;;;;-148.88;100.00;-17125.47;5036484;28;20388;-74
2023/08/12 09:27:24;;;;;;;19.70;17.60;;;;;;;-148.88;100.00;-17125.47;5036570;28;20541;-73
2023/08/12 09:29:50;;;;;;;20.10;16.58;;;;;;;-148.88;100.00;-17125.47;5036351;28;20400;-74
2023/08/12 09:32:19;;;;;;;17.02;14.90;;;;;;;-148.88;100.00;-17125.47;5036329;28;20025;-75
2023/08/12 09:34:54;;;;;;;16.52;14.50;;;;;;;-148.88;100.00;-17125.47;5036324;28;20087;-74
2023/08/12 09:37:22;;;;;;;16.13;13.02;;;;;;;-148.88;100.00;-17125.47;5036308;28;20032;-74
2023/08/12 09:39:48;;;;;;;14.88;13.05;;;;;;;-148.88;100.00;-17125.47;5036211;28;20025;-74
2023/08/12 09:42:15;;;;;;;15.60;13.55;;;;;;;-148.88;100.00;-17125.47;5036143;28;20139;-74
2023/08/12 09:44:41;;;;;;;15.30;13.18;;;;;;;-148.88;100.00;-17125.47;5035000;28;20022;-75
2023/08/12 09:47:10;;;;;;;17.30;13.80;;;;;;;-148.88;100.00;-17125.47;5034752;28;20032;-75
2023/08/12 09:49:36;;;;;;;16.77;13.60;;;;;;;-148.88;100.00;-17125.47;5036019;28;20488;-74
2023/08/12 09:52:03;;;;;;;15.20;12.68;;;;;;;-148.88;100.00;-17125.47;5035946;28;20028;-74
2023/08/12 09:54:31;;;;;;;15.73;11.77;;;;;;;-148.88;100.00;-17125.47;5035814;28;20120;-74
2023/08/12 09:56:59;;;;;;;12.65;9.50;;;;;;;-148.88;100.00;-17125.47;5035900;28;20092;-74
2023/08/12 09:59:27;;;;;;;11.18;7.85;;;;;;;-148.88;100.00;-17125.47;5036151;28;20491;-75
2023/08/12 10:01:53;;;;;;;8.82;7.43;;;;;;;-148.88;100.00;-17125.47;5035824;28;20025;-74
2023/08/12 10:04:22;;;;;;;8.20;7.40;;;;;;;-148.88;100.00;-17125.47;5035716;28;20488;-74
2023/08/12 10:06:48;;;;;;;8.27;7.47;;;;;;;-148.88;100.00;-17125.47;5035651;28;20025;-74
2023/08/12 10:09:15;;;;;;;8.20;7.32;;;;;;;-148.88;100.00;-17125.47;5035671;28;20040;-74
2023/08/12 10:11:43;;;;;;;7.72;6.93;;;;;;;-148.88;100.00;-17125.47;5035777;28;20426;-74
2023/08/12 10:14:10;;;;;;;10.65;7.45;;;;;;;-148.88;100.00;-17125.47;5035559;28;20074;-74
2023/08/12 10:16:36;;;;;;;7.60;5.60;;;;;;;-148.88;100.00;-17125.47;5035462;28;20033;-74
2023/08/12 10:19:04;;;;;;;8.57;6.38;;;;;;;-148.88;100.00;-17125.47;5035476;28;20026;-74
2023/08/12 10:21:29;;;;;;;9.00;6.10;;;;;;;-148.88;100.00;-17125.47;5035429;28;20028;-74
2023/08/12 10:23:58;;;;;;;7.72;6.28;;;;;;;-148.88;100.00;-17125.47;5035395;28;20026;-75
2023/08/12 10:26:24;;;;;;;6.88;5.55;;;;;;;-148.88;100.00;-17125.47;5035400;28;20201;-74
2023/08/12 10:28:50;;;;;;;7.28;6.03;;;;;;;-148.88;100.00;-17125.47;5035216;28;20022;-74
2023/08/12 10:31:16;;;;;;;9.30;5.70;;;;;;;-148.88;100.00;-17125.47;5035521;28;20025;-74
2023/08/12 10:33:42;;;;;;;7.25;5.28;;;;;;;-148.88;100.00;-17125.47;5035378;28;20025;-74
2023/08/12 10:36:08;;;;;;;6.20;4.90;;;;;;;-148.88;100.00;-17125.47;5033954;28;20026;-75
2023/08/12 10:38:34;;;;;;;7.32;5.45;;;;;;;-148.88;100.00;-17125.47;5035082;28;20033;-74
2023/08/12 10:41:22;;;;;;;5.60;4.95;;;;;;;-148.88;100.00;-17125.47;5035062;28;20025;-75
2023/08/12 10:43:50;;;;;;;7.25;5.00;;;;;;;-148.88;100.00;-17125.47;5035383;28;20018;-75